Time;durP1;ratioP1;P1;durP2;ratioP2;P2;SDS_P1;SDS_P2;PMS_P1;PMS_P2;Temp;Humidity;BMP_temperature;BMP_pressure;BME280_temperature;BME280_humidity;BME280_pressure;Samples;Min_cycle;Max_cycle;Signal;HPM_P1;HPM_P2
2023/11/04 00:00:16;;;;;;;0.93;0.65;;;;;;;10.09;62.35;94919.31;4930325;28;20176;-77
2023/11/04 00:02:42;;;;;;;0.73;0.40;;;;;;;9.99;63.06;94909.16;4925633;28;20196;-77
2023/11/04 00:05:07;;;;;;;1.60;0.90;;;;;;;10.03;63.79;94910.13;4945188;28;20219;-78
2023/11/04 00:07:33;;;;;;;1.63;0.50;;;;;;;10.03;62.84;94908.28;4942466;28;20302;-77
2023/11/04 00:09:59;;;;;;;0.63;0.60;;;;;;;10.10;62.46;94910.47;4939093;28;20204;-77
2023/11/04 00:12:24;;;;;;;2.33;0.60;;;;;;;10.03;63.83;94902.31;4933079;28;20269;-77
2023/11/04 00:14:50;;;;;;;2.08;0.65;;;;;;;10.12;62.53;94892.72;4938890;28;20686;-77
2023/11/04 00:17:15;;;;;;;1.17;0.47;;;;;;;10.22;63.14;94892.47;4935347;28;20345;-77
2023/11/04 00:19:40;;;;;;;1.08;0.55;;;;;;;10.17;62.45;94900.41;4958457;28;20338;-77
2023/11/04 00:22:06;;;;;;;2.05;0.60;;;;;;;10.07;62.54;94890.25;4921099;28;20635;-77
2023/11/04 00:24:32;;;;;;;1.20;0.60;;;;;;;10.04;62.82;94901.25;4941494;28;20575;-77
2023/11/04 00:26:59;;;;;;;1.38;0.70;;;;;;;9.98;63.48;94897.25;4946343;28;20212;-76
2023/11/04 00:29:24;;;;;;;1.05;0.57;;;;;;;10.12;62.94;94905.72;4953388;28;20220;-77
2023/11/04 00:31:50;;;;;;;0.95;0.80;;;;;;;10.09;62.34;94904.50;4967292;28;20199;-76
2023/11/04 00:34:15;;;;;;;1.58;0.60;;;;;;;10.17;62.29;94899.66;4922351;28;20758;-76
2023/11/04 00:36:40;;;;;;;1.63;0.80;;;;;;;10.16;63.28;94903.31;4952508;28;20685;-77
2023/11/04 00:39:06;;;;;;;0.65;0.63;;;;;;;10.20;62.64;94894.63;4933493;28;20232;-77
2023/11/04 00:41:32;;;;;;;0.80;0.60;;;;;;;10.29;62.24;94899.88;4927177;28;20301;-78
2023/11/04 00:43:58;;;;;;;0.93;0.52;;;;;;;10.28;63.13;94896.50;4941454;28;20258;-77
2023/11/04 00:46:25;;;;;;;1.08;0.50;;;;;;;10.11;63.09;94894.56;4944096;28;20220;-77
2023/11/04 00:48:50;;;;;;;0.63;0.50;;;;;;;10.40;62.69;94898.59;4930465;28;20710;-77
2023/11/04 00:51:16;;;;;;;3.53;0.50;;;;;;;10.37;62.62;94898.41;4928824;28;20311;-76
2023/11/04 00:53:42;;;;;;;0.90;0.70;;;;;;;10.27;62.87;94899.41;4944141;28;20113;-77
2023/11/04 00:56:07;;;;;;;1.27;0.55;;;;;;;10.30;62.92;94894.38;4951340;28;20181;-77
2023/11/04 00:58:33;;;;;;;0.88;0.52;;;;;;;10.25;63.85;94880.72;4952891;28;20206;-77
2023/11/04 01:00:58;;;;;;;1.70;0.52;;;;;;;10.29;63.00;94881.66;4940513;28;20299;-77
2023/11/04 01:03:24;;;;;;;1.00;0.50;;;;;;;10.34;63.14;94888.59;4928336;28;20274;-77
2023/11/04 01:05:49;;;;;;;0.90;0.60;;;;;;;10.35;62.25;94887.53;4927312;28;20271;-76
2023/11/04 01:08:15;;;;;;;2.58;0.60;;;;;;;10.40;62.83;94887.41;4931221;28;20332;-76
2023/11/04 01:10:40;;;;;;;1.08;0.60;;;;;;;10.39;62.99;94888.47;4926644;28;20619;-76
2023/11/04 01:13:06;;;;;;;0.80;0.50;;;;;;;10.48;62.08;94884.81;4942307;28;20251;-77
2023/11/04 01:15:32;;;;;;;1.45;0.63;;;;;;;10.36;62.70;94891.66;4946350;28;20615;-77
2023/11/04 01:17:57;;;;;;;1.33;0.50;;;;;;;10.19;63.66;94884.50;4929685;28;20247;-77
2023/11/04 01:20:23;;;;;;;1.17;0.50;;;;;;;10.23;63.44;94888.84;4949972;28;20280;-77
2023/11/04 01:22:48;;;;;;;1.60;0.82;;;;;;;10.35;63.84;94895.31;4945429;28;20353;-77
2023/11/04 01:25:14;;;;;;;2.15;0.70;;;;;;;10.28;64.37;94887.91;4926670;28;20431;-77
2023/11/04 01:27:39;;;;;;;2.20;0.80;;;;;;;10.23;63.40;94881.03;4946501;28;20182;-77
2023/11/04 01:30:05;;;;;;;1.15;0.70;;;;;;;10.39;63.16;94885.88;4937373;28;20188;-78
2023/11/04 01:32:30;;;;;;;1.73;0.90;;;;;;;10.36;63.37;94870.84;4951008;28;20153;-77
2023/11/04 01:34:56;;;;;;;1.00;0.68;;;;;;;10.40;63.30;94885.59;4935908;28;20199;-77
2023/11/04 01:37:25;;;;;;;2.05;0.80;;;;;;;10.36;63.93;94881.25;4939387;28;20082;-77
2023/11/04 01:39:53;;;;;;;0.90;0.60;;;;;;;10.34;63.52;94871.16;4956523;28;20221;-77
2023/11/04 01:42:19;;;;;;;1.23;1.13;;;;;;;10.46;63.25;94860.19;4927133;28;20194;-77
2023/11/04 01:44:44;;;;;;;0.82;0.70;;;;;;;10.33;64.16;94856.59;4942830;28;20289;-77
2023/11/04 01:47:10;;;;;;;1.15;0.88;;;;;;;10.34;63.94;94842.53;4954014;28;20177;-77
2023/11/04 01:49:36;;;;;;;1.42;0.57;;;;;;;10.41;63.18;94857.72;4943026;28;20196;-78
2023/11/04 01:52:03;;;;;;;0.90;0.50;;;;;;;10.38;63.60;94859.06;4949761;28;20199;-77
2023/11/04 01:54:28;;;;;;;0.98;0.70;;;;;;;10.23;64.38;94862.81;4967763;28;20654;-77
2023/11/04 01:56:54;;;;;;;1.10;0.70;;;;;;;10.23;64.08;94852.41;4936059;28;20168;-77
2023/11/04 01:59:19;;;;;;;1.17;0.88;;;;;;;10.04;64.69;94860.44;4943523;28;21310;-77
2023/11/04 02:01:48;;;;;;;1.05;0.70;;;;;;;10.24;64.26;94850.56;4945583;28;20228;-77
2023/11/04 02:04:14;;;;;;;1.15;0.60;;;;;;;10.32;63.58;94856.94;4937545;28;20310;-77
2023/11/04 02:06:40;;;;;;;1.65;0.57;;;;;;;10.34;64.22;94847.00;4944260;28;20252;-77
2023/11/04 02:09:06;;;;;;;0.90;0.73;;;;;;;10.21;64.33;94846.75;4926518;28;20195;-77
2023/11/04 02:11:32;;;;;;;0.95;0.77;;;;;;;10.32;64.04;94844.69;4925935;28;20195;-76
2023/11/04 02:13:57;;;;;;;1.27;0.70;;;;;;;10.34;64.16;94852.19;4922474;28;20204;-77
2023/11/04 02:16:23;;;;;;;3.40;0.70;;;;;;;10.24;64.06;94843.53;4951352;28;20273;-77
2023/11/04 02:18:48;;;;;;;0.85;0.70;;;;;;;10.19;64.06;94835.09;4929554;28;20212;-77
2023/11/04 02:21:15;;;;;;;1.85;0.82;;;;;;;10.33;64.58;94838.41;4931704;28;20208;-77
2023/11/04 02:23:40;;;;;;;1.65;0.70;;;;;;;10.30;63.77;94836.38;4954349;28;20285;-77
2023/11/04 02:26:05;;;;;;;0.75;0.75;;;;;;;10.24;64.48;94833.13;4965059;28;20269;-77
2023/11/04 02:28:31;;;;;;;2.10;1.33;;;;;;;10.26;63.90;94836.22;4939551;28;20270;-77
2023/11/04 02:30:56;;;;;;;1.48;0.98;;;;;;;10.33;64.28;94840.25;4952495;28;20317;-77
2023/11/04 02:33:22;;;;;;;1.13;0.80;;;;;;;10.29;64.29;94833.00;4960003;28;20279;-77
2023/11/04 02:35:49;;;;;;;1.38;0.73;;;;;;;10.36;63.62;94826.63;4921695;28;20173;-76
2023/11/04 02:38:15;;;;;;;3.22;0.70;;;;;;;10.01;65.43;94831.66;4933659;28;20719;-76
2023/11/04 02:40:40;;;;;;;0.80;0.70;;;;;;;10.34;64.22;94833.97;4935281;28;20191;-77
2023/11/04 02:43:06;;;;;;;1.00;0.85;;;;;;;10.34;63.99;94833.97;4932447;28;20249;-77
2023/11/04 02:45:32;;;;;;;1.20;0.68;;;;;;;10.26;64.38;94831.03;4946539;28;20195;-77
2023/11/04 02:47:57;;;;;;;1.92;1.00;;;;;;;10.39;64.69;94820.84;4929581;28;20212;-76
2023/11/04 02:50:22;;;;;;;0.88;0.80;;;;;;;10.41;63.86;94819.47;4940957;28;20160;-76
2023/11/04 02:52:48;;;;;;;1.80;0.75;;;;;;;10.41;63.87;94822.06;4939226;28;20676;-77
2023/11/04 02:55:13;;;;;;;0.80;0.80;;;;;;;10.24;64.41;94822.72;4930351;28;20273;-77
2023/11/04 02:57:39;;;;;;;1.52;0.80;;;;;;;10.29;64.07;94807.00;4942147;28;20236;-77
2023/11/04 03:00:05;;;;;;;1.05;0.70;;;;;;;10.26;63.65;94805.00;4951203;28;20208;-77
2023/11/04 03:02:31;;;;;;;0.95;0.77;;;;;;;10.17;63.45;94801.59;4933636;28;20284;-77
2023/11/04 03:04:56;;;;;;;1.25;0.98;;;;;;;10.30;63.04;94807.78;4951661;28;20315;-77
2023/11/04 03:07:22;;;;;;;2.65;1.00;;;;;;;10.28;63.20;94805.47;4934651;28;20207;-77
2023/11/04 03:09:47;;;;;;;1.00;0.80;;;;;;;10.21;63.59;94812.94;4949924;28;20331;-77
2023/11/04 03:12:13;;;;;;;1.30;1.00;;;;;;;10.35;63.18;94799.09;4942751;28;20680;-77
2023/11/04 03:14:38;;;;;;;1.65;0.85;;;;;;;10.46;62.77;94808.91;4934941;28;20212;-77
2023/11/04 03:17:04;;;;;;;0.82;0.70;;;;;;;10.51;63.21;94795.00;4935563;28;20343;-77
2023/11/04 03:19:30;;;;;;;2.55;0.90;;;;;;;10.40;63.46;94799.75;4931448;28;20195;-77
2023/11/04 03:21:56;;;;;;;1.02;0.77;;;;;;;10.38;63.10;94803.69;4933050;28;20109;-77
2023/11/04 03:24:22;;;;;;;1.02;0.73;;;;;;;10.40;62.98;94798.94;4949664;28;20346;-77
2023/11/04 03:26:48;;;;;;;1.27;0.60;;;;;;;10.36;63.99;94805.84;4945742;28;20235;-77
2023/11/04 03:29:14;;;;;;;0.77;0.63;;;;;;;10.17;63.63;94801.59;4921438;28;20189;-77
2023/11/04 03:31:40;;;;;;;1.70;0.90;;;;;;;10.33;63.78;94799.38;4945488;28;20195;-77
2023/11/04 03:34:05;;;;;;;1.20;0.88;;;;;;;10.40;64.20;94801.56;4923997;28;20650;-77
2023/11/04 03:36:30;;;;;;;0.85;0.73;;;;;;;10.36;63.55;94803.22;4940423;28;20191;-77
2023/11/04 03:38:56;;;;;;;1.60;0.57;;;;;;;10.41;63.56;94806.44;4926365;28;20212;-77
2023/11/04 03:41:22;;;;;;;1.33;0.77;;;;;;;10.45;62.37;94801.41;4933356;28;20184;-78
2023/11/04 03:43:49;;;;;;;1.65;0.90;;;;;;;10.44;62.51;94802.50;4921180;28;20228;-77
2023/11/04 03:46:14;;;;;;;1.38;0.70;;;;;;;10.22;64.24;94793.66;4927245;28;20195;-77
2023/11/04 03:48:39;;;;;;;1.80;0.77;;;;;;;10.15;63.80;94782.94;4974332;28;20237;-76
2023/11/04 03:51:08;;;;;;;1.80;0.80;;;;;;;10.20;64.23;94790.59;4930486;28;20169;-77
2023/11/04 03:53:34;;;;;;;0.75;0.65;;;;;;;10.16;63.89;94779.28;4926416;28;20248;-77
2023/11/04 03:56:01;;;;;;;0.88;0.77;;;;;;;10.24;63.15;94778.53;4938225;28;20149;-77
2023/11/04 03:58:26;;;;;;;1.67;0.70;;;;;;;10.33;63.62;94781.19;4939906;28;20318;-77
2023/11/04 04:00:52;;;;;;;1.33;0.60;;;;;;;10.33;63.60;94778.56;4923490;28;20549;-77
2023/11/04 04:03:17;;;;;;;0.95;0.65;;;;;;;10.26;63.72;94768.59;4924889;28;20211;-77
2023/11/04 04:05:42;;;;;;;1.35;0.63;;;;;;;10.34;63.26;94780.13;4933545;28;20289;-77
2023/11/04 04:08:08;;;;;;;1.45;0.70;;;;;;;10.37;63.39;94769.13;4927260;28;21213;-77
2023/11/04 04:10:33;;;;;;;1.35;0.80;;;;;;;10.27;62.74;94762.31;4959555;28;20211;-77
2023/11/04 04:12:59;;;;;;;1.55;0.80;;;;;;;10.17;63.57;94760.00;4921256;28;20695;-77
2023/11/04 04:15:24;;;;;;;1.15;0.60;;;;;;;10.14;63.47;94760.59;4957607;28;20612;-77
2023/11/04 04:17:49;;;;;;;2.08;0.70;;;;;;;10.23;62.99;94758.81;4938830;28;20686;-77
2023/11/04 04:20:18;;;;;;;1.95;0.60;;;;;;;10.11;63.36;94753.41;4947464;28;20273;-77
2023/11/04 04:22:46;;;;;;;2.15;0.57;;;;;;;10.20;63.46;94746.41;4938813;28;20223;-77
2023/11/04 04:25:11;;;;;;;0.80;0.57;;;;;;;10.07;64.06;94742.06;4949733;28;20731;-77
2023/11/04 04:27:37;;;;;;;1.15;0.68;;;;;;;10.17;63.80;94743.63;4933190;28;20271;-77
2023/11/04 04:30:04;;;;;;;1.42;0.60;;;;;;;10.19;63.69;94744.09;4945352;28;20282;-77
2023/11/04 04:32:30;;;;;;;1.15;0.75;;;;;;;10.22;63.48;94731.25;4941449;28;20274;-77
2023/11/04 04:34:55;;;;;;;1.25;0.90;;;;;;;10.33;62.39;94738.81;4918595;28;20243;-77
2023/11/04 04:37:21;;;;;;;1.38;0.55;;;;;;;10.36;62.68;94727.81;4931356;28;20287;-77
2023/11/04 04:39:46;;;;;;;0.65;0.65;;;;;;;10.30;63.54;94732.34;4921731;28;20638;-77
2023/11/04 04:42:12;;;;;;;1.83;0.75;;;;;;;10.33;63.58;94729.16;4941425;28;20247;-77
2023/11/04 04:44:37;;;;;;;2.15;0.80;;;;;;;10.29;63.76;94734.16;4938864;28;20218;-77
2023/11/04 04:47:03;;;;;;;0.75;0.60;;;;;;;10.18;64.00;94726.94;4934507;28;20278;-76
2023/11/04 04:49:28;;;;;;;1.13;0.70;;;;;;;10.17;64.37;94728.03;4939994;28;20304;-77
2023/11/04 04:51:54;;;;;;;0.52;0.50;;;;;;;10.20;64.30;94715.19;4916822;28;20279;-77
2023/11/04 04:54:19;;;;;;;0.60;0.50;;;;;;;10.04;65.09;94721.84;4942421;28;20196;-77
2023/11/04 04:56:46;;;;;;;1.75;0.95;;;;;;;10.06;64.88;94711.94;4923056;28;20196;-77
2023/11/04 04:59:12;;;;;;;1.23;0.60;;;;;;;10.06;65.36;94715.31;4950938;28;20185;-77
2023/11/04 05:01:37;;;;;;;1.48;0.55;;;;;;;10.18;64.66;94719.16;4940473;28;20528;-78
2023/11/04 05:04:03;;;;;;;1.52;0.77;;;;;;;10.17;64.81;94713.19;4941214;28;20254;-77
2023/11/04 05:06:29;;;;;;;1.88;0.70;;;;;;;10.00;65.44;94713.13;4934288;28;20187;-77
2023/11/04 05:08:55;;;;;;;1.05;0.70;;;;;;;10.06;65.20;94704.91;4961231;28;20648;-77
2023/11/04 05:11:21;;;;;;;0.50;0.50;;;;;;;10.05;65.00;94692.19;4920966;28;20200;-77
2023/11/04 05:13:46;;;;;;;1.20;0.55;;;;;;;10.07;65.14;94690.06;4929481;28;20219;-77
2023/11/04 05:16:12;;;;;;;1.77;0.65;;;;;;;10.10;64.49;94686.88;4933580;28;20243;-77
2023/11/04 05:18:37;;;;;;;1.35;0.70;;;;;;;10.09;65.42;94693.13;4939579;28;20288;-77
2023/11/04 05:21:03;;;;;;;1.13;0.50;;;;;;;10.06;65.09;94680.75;4932298;28;20347;-77
2023/11/04 05:23:29;;;;;;;0.80;0.65;;;;;;;10.00;65.75;94692.34;4936664;28;20686;-77
2023/11/04 05:25:55;;;;;;;1.05;0.40;;;;;;;10.08;65.35;94694.97;4943914;28;20097;-77
2023/11/04 05:28:21;;;;;;;2.45;0.73;;;;;;;10.06;64.97;94691.91;4960787;28;20512;-77
2023/11/04 05:30:47;;;;;;;1.15;0.70;;;;;;;10.18;64.47;94683.53;4930377;28;20200;-77
2023/11/04 05:33:12;;;;;;;0.60;0.50;;;;;;;10.11;64.74;94698.81;4937922;28;20184;-77
2023/11/04 05:35:38;;;;;;;0.98;0.47;;;;;;;10.01;65.14;94688.69;4947635;28;20753;-77
2023/11/04 05:38:03;;;;;;;2.55;0.80;;;;;;;9.98;64.79;94684.09;4944190;28;20216;-76
2023/11/04 05:40:35;;;;;;;1.40;0.60;;;;;;;10.05;64.40;94677.38;4930172;28;20360;-77
2023/11/04 05:43:00;;;;;;;1.00;0.55;;;;;;;10.06;64.53;94670.34;4958566;28;20188;-77
2023/11/04 05:45:28;;;;;;;1.75;0.50;;;;;;;9.92;64.79;94675.63;4929105;28;20211;-77
2023/11/04 05:47:54;;;;;;;0.80;0.43;;;;;;;9.90;64.50;94657.78;4931497;28;20264;-77
2023/11/04 05:50:19;;;;;;;1.48;0.70;;;;;;;9.89;65.32;94650.28;4917401;28;20885;-77
2023/11/04 05:52:45;;;;;;;1.17;0.70;;;;;;;10.09;64.48;94651.53;4946935;28;20215;-77
2023/11/04 05:55:13;;;;;;;1.27;0.70;;;;;;;10.14;65.15;94646.19;4938309;28;20282;-77
2023/11/04 05:57:39;;;;;;;1.25;0.80;;;;;;;10.04;64.70;94644.66;4946626;28;20275;-77
2023/11/04 06:00:11;;;;;;;1.25;1.02;;;;;;;10.00;65.44;94640.34;4919885;28;20822;-77
2023/11/04 06:02:40;;;;;;;1.60;0.85;;;;;;;10.14;64.05;94638.38;4933825;28;20195;-77
2023/11/04 06:05:08;;;;;;;1.02;0.70;;;;;;;10.11;64.57;94626.78;4934915;28;20195;-77
2023/11/04 06:07:34;;;;;;;2.90;0.70;;;;;;;10.13;63.95;94635.03;4936545;28;20185;-77
2023/11/04 06:09:59;;;;;;;0.90;0.73;;;;;;;10.12;64.14;94617.88;4940943;28;20555;-77
2023/11/04 06:12:25;;;;;;;1.45;0.70;;;;;;;10.14;64.53;94630.59;4929056;28;20212;-77
2023/11/04 06:14:50;;;;;;;1.77;0.70;;;;;;;10.09;64.32;94617.72;4942137;28;20199;-77
2023/11/04 06:17:15;;;;;;;1.48;0.60;;;;;;;10.05;64.33;94627.22;4949781;28;20504;-78
2023/11/04 06:19:41;;;;;;;1.10;0.68;;;;;;;9.84;65.32;94627.78;4936209;28;20550;-76
2023/11/04 06:22:06;;;;;;;0.90;0.70;;;;;;;10.08;64.53;94626.59;4919955;28;20589;-76
2023/11/04 06:24:32;;;;;;;1.25;0.77;;;;;;;10.02;64.49;94628.56;4936575;28;20246;-76
2023/11/04 06:26:57;;;;;;;1.67;0.60;;;;;;;10.05;64.36;94627.22;4927949;28;20203;-77
2023/11/04 06:29:23;;;;;;;2.30;0.80;;;;;;;9.94;64.53;94621.53;4931549;28;20152;-77
2023/11/04 06:31:48;;;;;;;1.00;0.80;;;;;;;9.97;64.75;94614.97;4947219;28;20785;-77
2023/11/04 06:34:13;;;;;;;1.35;0.60;;;;;;;10.07;64.35;94612.06;4933245;28;20029;-76
2023/11/04 06:36:39;;;;;;;0.98;0.80;;;;;;;10.15;64.43;94621.72;4944460;28;20265;-77
2023/11/04 06:39:05;;;;;;;1.33;0.50;;;;;;;10.10;64.32;94598.47;4933270;28;20639;-76
2023/11/04 06:41:31;;;;;;;1.80;0.70;;;;;;;10.15;63.98;94600.16;4946344;28;20308;-77
2023/11/04 06:43:56;;;;;;;1.20;0.57;;;;;;;10.13;64.26;94593.41;4942324;28;20609;-77
2023/11/04 06:46:25;;;;;;;1.45;0.60;;;;;;;10.20;63.67;94582.56;4943137;28;20655;-77
2023/11/04 06:48:51;;;;;;;1.23;0.60;;;;;;;10.23;63.50;94581.97;4950060;28;20223;-76
2023/11/04 06:51:18;;;;;;;0.73;0.50;;;;;;;10.15;63.71;94585.31;4942493;28;20619;-78
2023/11/04 06:53:44;;;;;;;0.75;0.70;;;;;;;10.27;63.61;94587.31;4930108;28;20197;-77
2023/11/04 06:56:09;;;;;;;1.23;0.52;;;;;;;10.22;63.92;94582.28;4960406;28;20715;-77
2023/11/04 06:58:34;;;;;;;2.03;0.82;;;;;;;10.34;63.91;94579.09;4917936;28;20572;-77
2023/11/04 07:01:01;;;;;;;1.38;0.60;;;;;;;10.30;63.26;94571.88;4953774;28;20626;-77
2023/11/04 07:03:29;;;;;;;1.50;0.50;;;;;;;10.37;64.18;94571.44;4963982;28;20321;-77
2023/11/04 07:05:55;;;;;;;0.80;0.50;;;;;;;10.32;64.09;94568.22;4939604;28;20347;-77
2023/11/04 07:08:20;;;;;;;1.00;0.77;;;;;;;10.28;63.92;94565.44;4953869;28;20815;-77
2023/11/04 07:10:46;;;;;;;1.58;0.50;;;;;;;10.34;64.18;94571.28;4931843;28;20203;-77
2023/11/04 07:13:14;;;;;;;0.60;0.57;;;;;;;10.42;63.51;94558.28;4949256;28;20327;-77
2023/11/04 07:15:44;;;;;;;1.65;0.95;;;;;;;10.54;63.29;94552.47;4927574;28;20191;-76
2023/11/04 07:18:14;;;;;;;0.73;0.60;;;;;;;10.44;63.63;94548.31;4961303;28;21586;-77
2023/11/04 07:20:40;;;;;;;2.60;0.90;;;;;;;10.59;62.48;94544.50;4934819;28;20244;-77
2023/11/04 07:23:10;;;;;;;1.25;0.50;;;;;;;10.55;62.81;94535.75;4938281;28;20637;-77
2023/11/04 07:25:36;;;;;;;1.77;0.60;;;;;;;10.62;63.69;94543.84;4934344;28;20628;-77
2023/11/04 07:28:02;;;;;;;1.70;0.50;;;;;;;10.74;62.80;94537.25;4930235;28;20184;-77
2023/11/04 07:30:28;;;;;;;1.20;0.60;;;;;;;10.70;63.24;94531.16;4946536;28;20590;-78
2023/11/04 07:32:53;;;;;;;1.60;0.63;;;;;;;10.63;62.84;94526.41;4965264;28;20127;-77
2023/11/04 07:35:19;;;;;;;0.50;0.50;;;;;;;10.86;62.20;94539.97;4935480;28;20325;-77
2023/11/04 07:37:44;;;;;;;0.80;0.60;;;;;;;10.94;62.95;94533.97;4960194;28;20275;-77
2023/11/04 07:40:10;;;;;;;1.00;0.40;;;;;;;10.92;61.81;94533.53;4935459;28;20211;-77
2023/11/04 07:42:35;;;;;;;1.00;0.40;;;;;;;10.94;62.77;94528.78;4948775;28;20721;-77
2023/11/04 07:45:01;;;;;;;1.25;0.50;;;;;;;11.04;61.84;94527.69;4927737;28;20261;-77
2023/11/04 07:47:26;;;;;;;2.90;0.77;;;;;;;11.00;61.23;94522.34;4948229;28;20199;-77
2023/11/04 07:49:51;;;;;;;2.35;0.40;;;;;;;11.09;61.52;94521.53;4956950;28;20231;-77
2023/11/04 07:52:17;;;;;;;1.63;0.63;;;;;;;11.29;61.42;94527.88;4946763;28;20639;-77
2023/11/04 07:54:42;;;;;;;2.35;0.50;;;;;;;11.40;60.54;94523.84;4953460;28;20775;-77
2023/11/04 07:57:08;;;;;;;0.70;0.45;;;;;;;11.37;60.71;94521.88;4942505;28;20230;-77
2023/11/04 07:59:33;;;;;;;1.27;0.55;;;;;;;11.20;61.56;94509.69;4932842;28;20189;-77
2023/11/04 08:01:59;;;;;;;1.48;0.70;;;;;;;11.30;61.58;94511.94;4920999;28;20272;-77
2023/11/04 08:04:24;;;;;;;1.20;0.40;;;;;;;11.34;60.85;94512.06;4945822;28;20542;-76
2023/11/04 08:06:50;;;;;;;1.00;0.40;;;;;;;11.35;61.39;94503.19;4960584;28;20349;-77
2023/11/04 08:09:15;;;;;;;0.88;0.40;;;;;;;11.29;61.65;94507.03;4923169;28;20197;-76
2023/11/04 08:11:42;;;;;;;1.80;0.95;;;;;;;11.19;61.49;94488.09;4929387;28;20291;-77
2023/11/04 08:14:08;;;;;;;0.77;0.40;;;;;;;11.39;60.48;94491.06;4922098;28;20292;-77
2023/11/04 08:16:33;;;;;;;4.32;1.27;;;;;;;11.31;61.27;94487.44;4944498;28;20274;-76
2023/11/04 08:18:58;;;;;;;0.52;0.50;;;;;;;11.25;61.64;94488.69;4953841;28;20154;-77
2023/11/04 08:21:29;;;;;;;0.70;0.40;;;;;;;11.29;61.01;94486.22;4924089;28;20281;-77
2023/11/04 08:23:56;;;;;;;2.58;0.30;;;;;;;11.34;61.31;94476.34;4926518;28;20212;-77
2023/11/04 08:26:21;;;;;;;2.75;0.38;;;;;;;11.17;61.65;94479.84;4941392;28;20438;-78
2023/11/04 08:28:49;;;;;;;1.05;0.30;;;;;;;11.08;61.43;94479.09;4956814;28;20288;-78
2023/11/04 08:31:15;;;;;;;1.23;0.30;;;;;;;11.38;60.54;94479.88;4941816;28;20286;-77
2023/11/04 08:33:40;;;;;;;1.85;0.43;;;;;;;11.59;59.58;94474.69;4927128;28;20679;-78
2023/11/04 08:36:07;;;;;;;1.27;0.47;;;;;;;11.32;60.79;94467.34;4934141;28;20200;-78
2023/11/04 08:38:32;;;;;;;0.95;0.20;;;;;;;11.19;61.13;94459.44;4931572;28;20106;-77
2023/11/04 08:40:58;;;;;;;0.73;0.35;;;;;;;11.43;60.63;94455.50;4929805;28;20631;-77
2023/11/04 08:43:23;;;;;;;1.63;0.43;;;;;;;11.40;60.62;94454.28;4951225;28;20085;-77
2023/11/04 08:45:49;;;;;;;0.75;0.30;;;;;;;11.46;60.58;94447.03;4921773;28;20216;-78
2023/11/04 08:48:14;;;;;;;0.47;0.30;;;;;;;11.65;61.04;94443.22;4959637;28;20201;-78
2023/11/04 08:50:40;;;;;;;0.40;0.40;;;;;;;11.60;61.27;94441.56;4949366;28;20168;-77
2023/11/04 08:53:05;;;;;;;1.48;0.40;;;;;;;11.55;60.50;94426.13;4936162;28;20709;-77
2023/11/04 08:55:31;;;;;;;1.15;0.52;;;;;;;11.77;59.95;94423.22;4954800;28;20274;-77
2023/11/04 08:57:56;;;;;;;1.50;0.43;;;;;;;11.98;60.04;94399.75;4941879;28;20296;-77
2023/11/04 09:00:22;;;;;;;0.73;0.20;;;;;;;12.06;60.90;94405.19;4949510;28;20299;-77
2023/11/04 09:02:49;;;;;;;2.75;0.40;;;;;;;11.96;58.94;94401.13;4939411;28;20568;-77
2023/11/04 09:05:17;;;;;;;0.80;0.30;;;;;;;11.91;59.84;94398.72;4922105;28;20696;-78
2023/11/04 09:07:43;;;;;;;0.93;0.40;;;;;;;11.98;59.33;94409.41;4976128;28;20186;-77
2023/11/04 09:10:08;;;;;;;0.45;0.30;;;;;;;11.93;59.94;94386.16;4923367;28;20196;-77
2023/11/04 09:12:34;;;;;;;0.82;0.35;;;;;;;12.16;60.06;94382.06;4941489;28;20216;-77
2023/11/04 09:14:59;;;;;;;0.82;0.30;;;;;;;12.09;60.57;94374.00;4935703;28;20106;-77
2023/11/04 09:17:24;;;;;;;0.40;0.30;;;;;;;12.13;59.27;94376.72;4950790;28;20218;-77
2023/11/04 09:19:51;;;;;;;1.40;0.40;;;;;;;12.09;60.16;94365.44;4939567;28;20285;-77
2023/11/04 09:22:16;;;;;;;0.93;0.32;;;;;;;12.31;58.60;94365.03;4936005;28;20788;-77
2023/11/04 09:24:45;;;;;;;0.95;0.25;;;;;;;12.32;57.36;94365.78;4940423;28;20359;-77
2023/11/04 09:27:10;;;;;;;2.25;0.50;;;;;;;12.25;58.11;94362.97;4973211;28;20560;-78
2023/11/04 09:29:36;;;;;;;0.50;0.20;;;;;;;12.34;58.07;94359.19;4957970;28;20077;-78
2023/11/04 09:32:02;;;;;;;1.70;0.70;;;;;;;12.16;58.79;94355.22;4942155;28;20139;-78
2023/11/04 09:34:28;;;;;;;0.70;0.32;;;;;;;11.99;58.78;94358.78;4938226;28;20636;-77
2023/11/04 09:36:53;;;;;;;1.67;0.50;;;;;;;12.18;58.56;94351.22;4969261;28;20207;-77
2023/11/04 09:39:18;;;;;;;0.60;0.30;;;;;;;12.17;59.09;94331.44;4954867;28;20211;-77
2023/11/04 09:41:45;;;;;;;1.08;0.35;;;;;;;11.94;59.06;94333.69;4929273;28;20192;-77
2023/11/04 09:44:11;;;;;;;0.82;0.40;;;;;;;11.96;58.86;94328.91;4937021;28;20202;-77
2023/11/04 09:46:37;;;;;;;0.38;0.30;;;;;;;11.85;58.47;94327.75;4937243;28;20101;-77
2023/11/04 09:49:03;;;;;;;1.52;0.32;;;;;;;12.10;59.21;94333.06;4936818;28;20121;-77
2023/11/04 09:51:28;;;;;;;0.50;0.20;;;;;;;12.07;59.12;94312.84;4931120;28;20258;-77
2023/11/04 09:53:57;;;;;;;1.33;0.40;;;;;;;12.08;58.95;94312.53;4946685;28;20917;-77
2023/11/04 09:56:23;;;;;;;1.70;0.40;;;;;;;11.95;58.43;94300.53;4933968;28;20614;-77
2023/11/04 09:58:50;;;;;;;1.00;0.30;;;;;;;12.06;58.23;94306.84;4935455;28;20173;-77
2023/11/04 10:01:18;;;;;;;0.50;0.30;;;;;;;11.87;59.35;94301.34;4918605;28;20203;-77
2023/11/04 10:03:47;;;;;;;0.77;0.30;;;;;;;12.21;58.16;94302.84;4919857;28;20207;-77
2023/11/04 10:06:13;;;;;;;1.00;0.63;;;;;;;12.43;58.21;94308.75;4932678;28;20739;-77
2023/11/04 10:08:38;;;;;;;0.28;0.28;;;;;;;12.41;57.96;94301.22;4963362;28;20156;-77
2023/11/04 10:11:05;;;;;;;0.90;0.22;;;;;;;12.51;58.25;94303.41;4935707;28;20337;-77
2023/11/04 10:13:31;;;;;;;0.30;0.30;;;;;;;12.65;57.32;94279.56;4917346;28;20722;-77
2023/11/04 10:15:56;;;;;;;1.23;0.30;;;;;;;12.50;57.45;94270.56;4917083;28;20475;-77
2023/11/04 10:18:24;;;;;;;0.45;0.20;;;;;;;12.40;58.33;94263.16;4953601;28;20639;-78
2023/11/04 10:20:50;;;;;;;0.52;0.30;;;;;;;12.45;57.21;94255.13;4936102;28;20203;-77
2023/11/04 10:23:15;;;;;;;0.47;0.30;;;;;;;12.45;58.04;94247.28;4932262;28;20192;-77
2023/11/04 10:25:41;;;;;;;0.85;0.63;;;;;;;12.54;56.93;94247.16;4935412;28;20217;-77
2023/11/04 10:28:06;;;;;;;1.33;0.20;;;;;;;12.44;56.69;94243.19;4919578;28;20164;-78
2023/11/04 10:30:32;;;;;;;1.05;0.35;;;;;;;12.50;57.17;94251.53;4925503;28;20212;-77
2023/11/04 10:33:00;;;;;;;0.60;0.30;;;;;;;12.40;57.59;94236.31;4936775;28;20290;-78
2023/11/04 10:35:26;;;;;;;0.73;0.38;;;;;;;12.01;57.15;94231.44;4931813;28;20280;-77
2023/11/04 10:37:54;;;;;;;1.10;0.28;;;;;;;12.02;58.44;94212.09;4935718;28;20336;-80
2023/11/04 10:40:20;;;;;;;0.98;0.38;;;;;;;12.31;57.37;94218.94;4952169;28;20180;-77
2023/11/04 10:43:07;;;;;;;0.75;0.30;;;;;;;12.54;57.61;94210.63;4921706;28;20647;-77
2023/11/04 10:45:58;;;;;;;0.73;0.20;;;;;;;12.44;57.60;94201.44;4934248;28;20244;-77
2023/11/04 10:48:33;;;;;;;0.90;0.38;;;;;;;12.45;57.79;94207.41;4918881;28;20055;-78
2023/11/04 10:51:12;;;;;;;0.28;0.20;;;;;;;12.39;57.87;94188.59;4958889;28;20191;-78
2023/11/04 10:53:52;;;;;;;0.88;0.50;;;;;;;12.45;58.84;94187.28;4920615;28;20238;-77
2023/11/04 10:56:25;;;;;;;0.50;0.50;;;;;;;12.52;59.51;94178.91;4934112;28;20198;-78
2023/11/04 10:59:05;;;;;;;0.60;0.20;;;;;;;12.53;59.24;94177.81;4929374;28;20167;-78
2023/11/04 11:01:32;;;;;;;0.70;0.38;;;;;;;12.44;58.89;94159.69;4921270;28;20021;-78
2023/11/04 11:04:00;;;;;;;1.33;0.30;;;;;;;12.69;59.73;94159.59;4946801;28;20031;-77
2023/11/04 11:06:26;;;;;;;1.38;0.30;;;;;;;12.70;59.39;94148.09;4957205;28;20066;-77
2023/11/04 11:08:52;;;;;;;0.40;0.40;;;;;;;12.61;58.14;94148.22;4960494;28;20688;-77
2023/11/04 11:11:24;;;;;;;1.10;0.40;;;;;;;12.84;58.96;94148.44;4935293;28;20024;-78
2023/11/04 11:13:52;;;;;;;1.45;0.30;;;;;;;12.92;57.89;94137.09;4936358;28;20612;-77
2023/11/04 11:16:17;;;;;;;0.32;0.30;;;;;;;12.95;58.30;94134.91;4925542;28;20192;-77
2023/11/04 11:18:43;;;;;;;1.02;0.30;;;;;;;12.78;56.89;94134.09;4933523;28;20219;-77
2023/11/04 11:21:12;;;;;;;0.38;0.30;;;;;;;12.95;58.25;94120.00;4937560;28;20237;-78
2023/11/04 11:23:38;;;;;;;0.95;0.20;;;;;;;13.02;57.24;94114.97;4933759;28;20211;-77
2023/11/04 11:26:05;;;;;;;1.95;0.30;;;;;;;12.73;56.91;94103.78;4937352;28;20515;-77
2023/11/04 11:28:39;;;;;;;0.40;0.40;;;;;;;12.78;56.57;94079.28;4935931;28;20231;-77